sensor_id;sensor_type;location;lat;lon;timestamp;P1;durP1;ratioP1;P2;durP2;ratioP2
80823;SDS011;70538;59.122;37.876;2023-08-20T00:00:22;7.07;;;2.38;;
80823;SDS011;70538;59.122;37.876;2023-08-20T00:02:51;6.38;;;2.20;;
80823;SDS011;70538;59.122;37.876;2023-08-20T00:05:31;7.22;;;2.20;;
80823;SDS011;70538;59.122;37.876;2023-08-20T00:07:59;7.40;;;2.30;;
80823;SDS011;70538;59.122;37.876;2023-08-20T00:10:27;8.87;;;2.57;;
80823;SDS011;70538;59.122;37.876;2023-08-20T00:12:55;6.93;;;2.20;;
80823;SDS011;70538;59.122;37.876;2023-08-20T00:15:23;6.68;;;2.13;;
80823;SDS011;70538;59.122;37.876;2023-08-20T00:17:54;6.28;;;2.00;;
80823;SDS011;70538;59.122;37.876;2023-08-20T00:20:23;6.70;;;1.80;;
80823;SDS011;70538;59.122;37.876;2023-08-20T00:22:51;6.23;;;1.83;;
80823;SDS011;70538;59.122;37.876;2023-08-20T00:25:19;6.35;;;1.98;;
80823;SDS011;70538;59.122;37.876;2023-08-20T00:27:47;5.75;;;1.77;;
80823;SDS011;70538;59.122;37.876;2023-08-20T00:30:15;7.57;;;1.70;;
80823;SDS011;70538;59.122;37.876;2023-08-20T00:32:43;5.28;;;1.63;;
80823;SDS011;70538;59.122;37.876;2023-08-20T00:35:11;6.97;;;1.77;;
80823;SDS011;70538;59.122;37.876;2023-08-20T00:37:39;5.45;;;1.70;;
80823;SDS011;70538;59.122;37.876;2023-08-20T00:40:07;7.35;;;2.40;;
80823;SDS011;70538;59.122;37.876;2023-08-20T00:42:37;5.95;;;2.10;;
80823;SDS011;70538;59.122;37.876;2023-08-20T00:45:05;6.57;;;1.92;;
80823;SDS011;70538;59.122;37.876;2023-08-20T00:47:34;5.40;;;1.80;;
80823;SDS011;70538;59.122;37.876;2023-08-20T00:50:04;5.95;;;1.90;;
80823;SDS011;70538;59.122;37.876;2023-08-20T00:52:35;5.85;;;2.08;;
80823;SDS011;70538;59.122;37.876;2023-08-20T00:55:06;4.68;;;1.50;;
80823;SDS011;70538;59.122;37.876;2023-08-20T00:57:37;6.40;;;1.70;;
80823;SDS011;70538;59.122;37.876;2023-08-20T01:00:06;5.30;;;1.90;;
80823;SDS011;70538;59.122;37.876;2023-08-20T01:02:37;7.07;;;1.85;;
80823;SDS011;70538;59.122;37.876;2023-08-20T01:05:07;7.15;;;1.65;;
80823;SDS011;70538;59.122;37.876;2023-08-20T01:13:25;8.30;;;2.17;;
80823;SDS011;70538;59.122;37.876;2023-08-20T01:15:53;5.72;;;1.75;;
80823;SDS011;70538;59.122;37.876;2023-08-20T01:18:21;6.35;;;2.22;;
80823;SDS011;70538;59.122;37.876;2023-08-20T01:20:53;7.50;;;2.70;;
80823;SDS011;70538;59.122;37.876;2023-08-20T01:29:06;10.60;;;4.50;;
80823;SDS011;70538;59.122;37.876;2023-08-20T01:31:34;11.00;;;5.00;;
80823;SDS011;70538;59.122;37.876;2023-08-20T01:34:02;7.18;;;3.90;;
80823;SDS011;70538;59.122;37.876;2023-08-20T01:36:31;11.25;;;5.40;;
80823;SDS011;70538;59.122;37.876;2023-08-20T01:38:59;10.77;;;5.20;;
80823;SDS011;70538;59.122;37.876;2023-08-20T01:41:27;10.85;;;4.70;;
80823;SDS011;70538;59.122;37.876;2023-08-20T01:43:55;11.02;;;4.82;;
80823;SDS011;70538;59.122;37.876;2023-08-20T01:46:23;8.60;;;5.07;;
80823;SDS011;70538;59.122;37.876;2023-08-20T01:48:51;9.40;;;4.70;;
80823;SDS011;70538;59.122;37.876;2023-08-20T01:51:23;14.03;;;6.03;;
80823;SDS011;70538;59.122;37.876;2023-08-20T01:53:51;16.00;;;6.63;;
80823;SDS011;70538;59.122;37.876;2023-08-20T01:56:19;21.08;;;9.13;;
80823;SDS011;70538;59.122;37.876;2023-08-20T01:58:46;16.55;;;8.25;;
80823;SDS011;70538;59.122;37.876;2023-08-20T02:01:14;19.63;;;10.80;;
80823;SDS011;70538;59.122;37.876;2023-08-20T02:03:42;17.03;;;9.73;;
80823;SDS011;70538;59.122;37.876;2023-08-20T02:06:10;16.90;;;9.25;;
80823;SDS011;70538;59.122;37.876;2023-08-20T02:08:38;16.52;;;7.75;;
80823;SDS011;70538;59.122;37.876;2023-08-20T02:11:06;11.02;;;6.13;;
80823;SDS011;70538;59.122;37.876;2023-08-20T02:13:34;11.27;;;5.50;;
80823;SDS011;70538;59.122;37.876;2023-08-20T02:16:03;8.43;;;3.77;;
80823;SDS011;70538;59.122;37.876;2023-08-20T02:18:52;7.10;;;3.25;;
80823;SDS011;70538;59.122;37.876;2023-08-20T02:21:19;7.15;;;2.53;;
80823;SDS011;70538;59.122;37.876;2023-08-20T02:23:47;7.82;;;2.40;;
80823;SDS011;70538;59.122;37.876;2023-08-20T02:26:16;7.90;;;2.30;;
80823;SDS011;70538;59.122;37.876;2023-08-20T02:28:44;7.07;;;2.50;;
80823;SDS011;70538;59.122;37.876;2023-08-20T02:31:12;7.80;;;2.35;;
80823;SDS011;70538;59.122;37.876;2023-08-20T02:33:40;6.22;;;1.90;;
80823;SDS011;70538;59.122;37.876;2023-08-20T02:36:08;5.75;;;2.05;;
80823;SDS011;70538;59.122;37.876;2023-08-20T02:38:36;5.68;;;2.00;;
80823;SDS011;70538;59.122;37.876;2023-08-20T02:41:05;6.40;;;2.10;;
80823;SDS011;70538;59.122;37.876;2023-08-20T02:43:33;5.72;;;1.98;;
80823;SDS011;70538;59.122;37.876;2023-08-20T02:46:01;5.80;;;2.20;;
80823;SDS011;70538;59.122;37.876;2023-08-20T02:48:30;5.38;;;2.00;;
80823;SDS011;70538;59.122;37.876;2023-08-20T02:50:58;6.82;;;2.40;;
80823;SDS011;70538;59.122;37.876;2023-08-20T02:53:26;5.83;;;2.00;;
80823;SDS011;70538;59.122;37.876;2023-08-20T02:55:54;6.30;;;2.30;;
80823;SDS011;70538;59.122;37.876;2023-08-20T02:58:22;7.18;;;2.35;;
80823;SDS011;70538;59.122;37.876;2023-08-20T03:00:50;6.78;;;2.70;;
80823;SDS011;70538;59.122;37.876;2023-08-20T03:03:18;7.93;;;3.05;;
80823;SDS011;70538;59.122;37.876;2023-08-20T03:05:46;6.60;;;2.43;;
80823;SDS011;70538;59.122;37.876;2023-08-20T03:08:14;8.18;;;2.70;;
80823;SDS011;70538;59.122;37.876;2023-08-20T03:10:42;8.13;;;2.50;;
80823;SDS011;70538;59.122;37.876;2023-08-20T03:13:10;8.95;;;2.45;;
80823;SDS011;70538;59.122;37.876;2023-08-20T03:15:38;6.63;;;2.08;;
80823;SDS011;70538;59.122;37.876;2023-08-20T03:18:06;6.10;;;2.00;;
80823;SDS011;70538;59.122;37.876;2023-08-20T03:20:37;6.47;;;2.10;;
80823;SDS011;70538;59.122;37.876;2023-08-20T03:23:05;7.70;;;2.15;;
80823;SDS011;70538;59.122;37.876;2023-08-20T03:25:33;7.90;;;2.05;;
80823;SDS011;70538;59.122;37.876;2023-08-20T03:28:01;6.50;;;2.30;;
80823;SDS011;70538;59.122;37.876;2023-08-20T03:30:29;6.60;;;2.00;;
80823;SDS011;70538;59.122;37.876;2023-08-20T03:32:58;7.40;;;2.15;;
80823;SDS011;70538;59.122;37.876;2023-08-20T03:35:26;6.75;;;2.17;;
80823;SDS011;70538;59.122;37.876;2023-08-20T03:37:54;6.07;;;2.55;;
80823;SDS011;70538;59.122;37.876;2023-08-20T03:40:22;5.80;;;2.03;;
80823;SDS011;70538;59.122;37.876;2023-08-20T03:42:50;7.10;;;1.90;;
80823;SDS011;70538;59.122;37.876;2023-08-20T03:45:18;6.57;;;2.17;;
80823;SDS011;70538;59.122;37.876;2023-08-20T03:47:46;7.53;;;1.92;;
80823;SDS011;70538;59.122;37.876;2023-08-20T03:50:15;8.85;;;2.10;;
80823;SDS011;70538;59.122;37.876;2023-08-20T03:52:44;6.25;;;1.90;;
80823;SDS011;70538;59.122;37.876;2023-08-20T03:55:12;7.00;;;2.00;;
80823;SDS011;70538;59.122;37.876;2023-08-20T03:57:40;9.55;;;4.05;;
80823;SDS011;70538;59.122;37.876;2023-08-20T04:00:08;7.90;;;3.00;;
80823;SDS011;70538;59.122;37.876;2023-08-20T04:02:37;6.45;;;2.28;;
80823;SDS011;70538;59.122;37.876;2023-08-20T04:05:05;8.98;;;2.10;;
80823;SDS011;70538;59.122;37.876;2023-08-20T04:07:34;7.37;;;2.50;;
80823;SDS011;70538;59.122;37.876;2023-08-20T04:10:04;8.15;;;3.00;;
80823;SDS011;70538;59.122;37.876;2023-08-20T04:12:32;7.53;;;2.50;;
80823;SDS011;70538;59.122;37.876;2023-08-20T04:15:00;5.72;;;2.00;;
80823;SDS011;70538;59.122;37.876;2023-08-20T04:17:32;10.10;;;3.55;;
80823;SDS011;70538;59.122;37.876;2023-08-20T04:20:00;7.57;;;2.20;;
80823;SDS011;70538;59.122;37.876;2023-08-20T04:22:30;7.75;;;2.55;;
80823;SDS011;70538;59.122;37.876;2023-08-20T04:24:58;7.70;;;2.20;;
80823;SDS011;70538;59.122;37.876;2023-08-20T04:27:30;9.88;;;2.33;;
80823;SDS011;70538;59.122;37.876;2023-08-20T04:29:57;11.82;;;3.53;;
80823;SDS011;70538;59.122;37.876;2023-08-20T04:32:25;10.20;;;3.90;;
80823;SDS011;70538;59.122;37.876;2023-08-20T04:34:57;10.25;;;2.85;;
80823;SDS011;70538;59.122;37.876;2023-08-20T04:37:24;7.15;;;2.42;;
80823;SDS011;70538;59.122;37.876;2023-08-20T04:39:52;9.68;;;3.17;;
80823;SDS011;70538;59.122;37.876;2023-08-20T04:42:20;6.35;;;2.15;;
80823;SDS011;70538;59.122;37.876;2023-08-20T04:44:48;7.77;;;2.20;;
80823;SDS011;70538;59.122;37.876;2023-08-20T04:47:15;7.13;;;2.53;;
80823;SDS011;70538;59.122;37.876;2023-08-20T04:49:43;7.55;;;2.13;;
80823;SDS011;70538;59.122;37.876;2023-08-20T04:52:11;7.63;;;2.60;;
80823;SDS011;70538;59.122;37.876;2023-08-20T04:54:39;7.32;;;2.13;;
80823;SDS011;70538;59.122;37.876;2023-08-20T04:57:07;5.63;;;1.83;;
80823;SDS011;70538;59.122;37.876;2023-08-20T04:59:35;7.13;;;1.90;;
80823;SDS011;70538;59.122;37.876;2023-08-20T05:02:02;5.78;;;1.85;;
80823;SDS011;70538;59.122;37.876;2023-08-20T05:04:31;7.35;;;1.90;;
80823;SDS011;70538;59.122;37.876;2023-08-20T05:07:00;6.85;;;1.70;;
80823;SDS011;70538;59.122;37.876;2023-08-20T05:09:28;6.87;;;1.77;;
80823;SDS011;70538;59.122;37.876;2023-08-20T05:11:55;5.13;;;1.85;;
80823;SDS011;70538;59.122;37.876;2023-08-20T05:14:23;5.75;;;1.92;;
80823;SDS011;70538;59.122;37.876;2023-08-20T05:16:56;7.63;;;1.77;;
80823;SDS011;70538;59.122;37.876;2023-08-20T05:19:26;6.20;;;1.83;;
80823;SDS011;70538;59.122;37.876;2023-08-20T05:21:53;6.63;;;2.43;;
80823;SDS011;70538;59.122;37.876;2023-08-20T05:24:26;29.25;;;13.27;;
80823;SDS011;70538;59.122;37.876;2023-08-20T05:27:07;15.25;;;6.55;;
80823;SDS011;70538;59.122;37.876;2023-08-20T05:29:36;7.30;;;1.98;;
80823;SDS011;70538;59.122;37.876;2023-08-20T05:32:04;6.65;;;2.30;;
80823;SDS011;70538;59.122;37.876;2023-08-20T05:34:32;6.33;;;1.80;;
80823;SDS011;70538;59.122;37.876;2023-08-20T05:37:00;5.68;;;1.98;;
80823;SDS011;70538;59.122;37.876;2023-08-20T05:39:29;5.63;;;1.70;;
80823;SDS011;70538;59.122;37.876;2023-08-20T05:41:57;5.45;;;1.85;;
80823;SDS011;70538;59.122;37.876;2023-08-20T05:44:25;5.72;;;1.70;;
80823;SDS011;70538;59.122;37.876;2023-08-20T05:46:53;6.60;;;1.93;;
80823;SDS011;70538;59.122;37.876;2023-08-20T05:49:21;6.57;;;1.77;;
80823;SDS011;70538;59.122;37.876;2023-08-20T05:51:48;6.60;;;2.17;;
80823;SDS011;70538;59.122;37.876;2023-08-20T05:54:16;6.57;;;2.08;;
80823;SDS011;70538;59.122;37.876;2023-08-20T05:56:44;5.75;;;2.00;;
80823;SDS011;70538;59.122;37.876;2023-08-20T05:59:11;5.40;;;2.00;;
80823;SDS011;70538;59.122;37.876;2023-08-20T06:01:39;6.55;;;2.05;;
80823;SDS011;70538;59.122;37.876;2023-08-20T06:04:08;5.85;;;2.15;;
80823;SDS011;70538;59.122;37.876;2023-08-20T06:06:36;5.75;;;1.77;;
80823;SDS011;70538;59.122;37.876;2023-08-20T06:09:05;7.57;;;1.92;;
80823;SDS011;70538;59.122;37.876;2023-08-20T06:11:36;6.20;;;2.10;;
80823;SDS011;70538;59.122;37.876;2023-08-20T06:14:03;6.00;;;2.22;;
80823;SDS011;70538;59.122;37.876;2023-08-20T06:16:33;6.15;;;2.30;;
80823;SDS011;70538;59.122;37.876;2023-08-20T06:19:01;9.68;;;3.13;;
80823;SDS011;70538;59.122;37.876;2023-08-20T06:21:31;8.15;;;2.92;;
80823;SDS011;70538;59.122;37.876;2023-08-20T06:24:00;7.50;;;2.17;;
80823;SDS011;70538;59.122;37.876;2023-08-20T06:26:28;5.53;;;1.75;;
80823;SDS011;70538;59.122;37.876;2023-08-20T06:28:56;8.55;;;3.03;;
80823;SDS011;70538;59.122;37.876;2023-08-20T06:31:24;4.95;;;1.42;;
80823;SDS011;70538;59.122;37.876;2023-08-20T06:33:51;6.93;;;1.77;;
80823;SDS011;70538;59.122;37.876;2023-08-20T06:36:19;6.13;;;1.70;;
80823;SDS011;70538;59.122;37.876;2023-08-20T06:38:47;6.57;;;2.03;;
80823;SDS011;70538;59.122;37.876;2023-08-20T06:41:14;5.20;;;1.80;;
80823;SDS011;70538;59.122;37.876;2023-08-20T06:43:43;5.00;;;1.60;;
80823;SDS011;70538;59.122;37.876;2023-08-20T06:46:10;6.72;;;1.80;;
80823;SDS011;70538;59.122;37.876;2023-08-20T06:48:38;4.50;;;1.40;;
80823;SDS011;70538;59.122;37.876;2023-08-20T06:51:12;6.63;;;1.63;;
80823;SDS011;70538;59.122;37.876;2023-08-20T06:53:41;4.95;;;1.50;;
80823;SDS011;70538;59.122;37.876;2023-08-20T06:56:09;4.85;;;1.42;;
80823;SDS011;70538;59.122;37.876;2023-08-20T06:58:38;6.63;;;1.52;;
80823;SDS011;70538;59.122;37.876;2023-08-20T07:01:07;4.90;;;1.60;;
80823;SDS011;70538;59.122;37.876;2023-08-20T07:03:40;6.80;;;1.85;;
80823;SDS011;70538;59.122;37.876;2023-08-20T07:06:09;5.40;;;1.80;;
80823;SDS011;70538;59.122;37.876;2023-08-20T07:08:38;6.20;;;1.90;;
80823;SDS011;70538;59.122;37.876;2023-08-20T07:11:07;5.07;;;1.48;;
80823;SDS011;70538;59.122;37.876;2023-08-20T07:13:36;6.00;;;1.40;;
80823;SDS011;70538;59.122;37.876;2023-08-20T07:16:05;5.88;;;1.45;;
80823;SDS011;70538;59.122;37.876;2023-08-20T07:18:33;4.82;;;1.52;;
80823;SDS011;70538;59.122;37.876;2023-08-20T07:21:01;5.05;;;1.30;;
80823;SDS011;70538;59.122;37.876;2023-08-20T07:23:29;6.18;;;1.40;;
80823;SDS011;70538;59.122;37.876;2023-08-20T07:26:10;5.27;;;1.60;;
80823;SDS011;70538;59.122;37.876;2023-08-20T07:28:39;5.22;;;1.50;;
80823;SDS011;70538;59.122;37.876;2023-08-20T07:31:28;4.60;;;1.20;;
80823;SDS011;70538;59.122;37.876;2023-08-20T07:34:00;6.05;;;1.27;;
80823;SDS011;70538;59.122;37.876;2023-08-20T07:36:32;5.55;;;1.40;;
80823;SDS011;70538;59.122;37.876;2023-08-20T07:39:01;7.00;;;2.83;;
80823;SDS011;70538;59.122;37.876;2023-08-20T07:41:29;5.07;;;1.58;;
80823;SDS011;70538;59.122;37.876;2023-08-20T07:43:58;5.65;;;1.70;;
80823;SDS011;70538;59.122;37.876;2023-08-20T07:46:26;6.43;;;1.67;;
80823;SDS011;70538;59.122;37.876;2023-08-20T07:48:54;4.80;;;1.50;;
80823;SDS011;70538;59.122;37.876;2023-08-20T07:51:22;6.23;;;1.70;;
80823;SDS011;70538;59.122;37.876;2023-08-20T07:53:50;5.78;;;1.40;;
80823;SDS011;70538;59.122;37.876;2023-08-20T07:56:18;6.50;;;1.40;;
80823;SDS011;70538;59.122;37.876;2023-08-20T07:58:46;4.15;;;1.27;;
80823;SDS011;70538;59.122;37.876;2023-08-20T08:01:14;4.43;;;1.30;;
80823;SDS011;70538;59.122;37.876;2023-08-20T08:03:44;4.80;;;1.37;;
80823;SDS011;70538;59.122;37.876;2023-08-20T08:06:12;6.32;;;1.52;;
80823;SDS011;70538;59.122;37.876;2023-08-20T08:08:42;4.43;;;1.27;;
80823;SDS011;70538;59.122;37.876;2023-08-20T08:11:11;4.80;;;1.13;;
80823;SDS011;70538;59.122;37.876;2023-08-20T08:13:41;5.35;;;1.67;;
80823;SDS011;70538;59.122;37.876;2023-08-20T08:16:09;6.03;;;1.60;;
80823;SDS011;70538;59.122;37.876;2023-08-20T08:18:37;5.97;;;1.70;;
80823;SDS011;70538;59.122;37.876;2023-08-20T08:21:04;9.15;;;2.58;;
80823;SDS011;70538;59.122;37.876;2023-08-20T08:23:32;8.07;;;2.15;;
80823;SDS011;70538;59.122;37.876;2023-08-20T08:26:00;6.82;;;2.05;;
80823;SDS011;70538;59.122;37.876;2023-08-20T08:28:28;7.03;;;1.77;;
80823;SDS011;70538;59.122;37.876;2023-08-20T08:30:56;6.72;;;1.30;;
80823;SDS011;70538;59.122;37.876;2023-08-20T08:33:24;4.50;;;1.20;;
80823;SDS011;70538;59.122;37.876;2023-08-20T08:35:52;7.43;;;1.20;;
80823;SDS011;70538;59.122;37.876;2023-08-20T08:38:20;4.82;;;1.30;;
80823;SDS011;70538;59.122;37.876;2023-08-20T08:40:51;5.10;;;1.47;;
80823;SDS011;70538;59.122;37.876;2023-08-20T08:43:19;4.82;;;1.50;;
80823;SDS011;70538;59.122;37.876;2023-08-20T08:45:47;5.70;;;1.20;;
80823;SDS011;70538;59.122;37.876;2023-08-20T08:48:18;5.75;;;1.58;;
80823;SDS011;70538;59.122;37.876;2023-08-20T08:50:47;8.60;;;3.53;;
80823;SDS011;70538;59.122;37.876;2023-08-20T08:53:16;5.20;;;1.50;;
80823;SDS011;70538;59.122;37.876;2023-08-20T08:55:45;5.22;;;1.50;;
80823;SDS011;70538;59.122;37.876;2023-08-20T08:58:14;6.70;;;1.60;;
80823;SDS011;70538;59.122;37.876;2023-08-20T09:00:42;5.00;;;1.60;;
80823;SDS011;70538;59.122;37.876;2023-08-20T09:03:10;4.90;;;1.20;;
80823;SDS011;70538;59.122;37.876;2023-08-20T09:05:47;6.37;;;1.40;;
80823;SDS011;70538;59.122;37.876;2023-08-20T09:08:19;4.95;;;1.40;;
80823;SDS011;70538;59.122;37.876;2023-08-20T09:10:51;5.25;;;1.38;;
80823;SDS011;70538;59.122;37.876;2023-08-20T09:13:33;4.85;;;1.27;;
80823;SDS011;70538;59.122;37.876;2023-08-20T09:16:08;5.38;;;1.40;;
80823;SDS011;70538;59.122;37.876;2023-08-20T09:18:38;6.47;;;1.30;;
80823;SDS011;70538;59.122;37.876;2023-08-20T09:21:11;5.82;;;1.50;;
80823;SDS011;70538;59.122;37.876;2023-08-20T09:23:46;5.20;;;1.38;;
80823;SDS011;70538;59.122;37.876;2023-08-20T09:26:14;5.93;;;1.48;;
80823;SDS011;70538;59.122;37.876;2023-08-20T09:28:43;6.45;;;1.60;;
80823;SDS011;70538;59.122;37.876;2023-08-20T09:31:13;6.37;;;1.40;;
80823;SDS011;70538;59.122;37.876;2023-08-20T09:33:48;5.40;;;1.40;;
80823;SDS011;70538;59.122;37.876;2023-08-20T09:36:17;6.43;;;1.60;;
80823;SDS011;70538;59.122;37.876;2023-08-20T09:38:45;6.15;;;1.30;;
80823;SDS011;70538;59.122;37.876;2023-08-20T09:41:16;4.95;;;1.17;;
80823;SDS011;70538;59.122;37.876;2023-08-20T09:43:45;5.30;;;1.23;;
80823;SDS011;70538;59.122;37.876;2023-08-20T09:46:15;5.68;;;1.20;;
80823;SDS011;70538;59.122;37.876;2023-08-20T09:48:47;6.47;;;1.60;;
80823;SDS011;70538;59.122;37.876;2023-08-20T09:51:19;7.45;;;1.80;;
80823;SDS011;70538;59.122;37.876;2023-08-20T09:56:32;5.23;;;1.60;;
80823;SDS011;70538;59.122;37.876;2023-08-20T09:59:06;6.70;;;2.20;;
80823;SDS011;70538;59.122;37.876;2023-08-20T10:01:35;6.97;;;1.80;;
80823;SDS011;70538;59.122;37.876;2023-08-20T10:04:04;5.10;;;1.52;;
80823;SDS011;70538;59.122;37.876;2023-08-20T10:06:33;7.45;;;1.40;;
80823;SDS011;70538;59.122;37.876;2023-08-20T10:09:03;4.97;;;1.57;;
80823;SDS011;70538;59.122;37.876;2023-08-20T10:11:32;5.43;;;1.90;;
80823;SDS011;70538;59.122;37.876;2023-08-20T10:14:00;5.47;;;1.60;;
80823;SDS011;70538;59.122;37.876;2023-08-20T10:16:28;5.43;;;1.70;;
80823;SDS011;70538;59.122;37.876;2023-08-20T10:18:58;11.68;;;4.15;;
80823;SDS011;70538;59.122;37.876;2023-08-20T10:21:30;5.30;;;1.60;;
80823;SDS011;70538;59.122;37.876;2023-08-20T10:24:05;6.25;;;1.70;;
80823;SDS011;70538;59.122;37.876;2023-08-20T10:26:34;5.90;;;2.35;;
80823;SDS011;70538;59.122;37.876;2023-08-20T10:32:11;5.75;;;2.00;;
80823;SDS011;70538;59.122;37.876;2023-08-20T10:34:42;7.30;;;2.17;;
80823;SDS011;70538;59.122;37.876;2023-08-20T10:37:25;6.43;;;1.88;;
80823;SDS011;70538;59.122;37.876;2023-08-20T10:39:58;7.15;;;1.92;;
80823;SDS011;70538;59.122;37.876;2023-08-20T10:42:26;6.88;;;2.05;;
80823;SDS011;70538;59.122;37.876;2023-08-20T10:45:07;8.30;;;2.50;;
80823;SDS011;70538;59.122;37.876;2023-08-20T10:47:43;5.47;;;1.60;;
80823;SDS011;70538;59.122;37.876;2023-08-20T10:50:14;6.90;;;2.03;;
80823;SDS011;70538;59.122;37.876;2023-08-20T10:52:50;8.73;;;3.50;;
80823;SDS011;70538;59.122;37.876;2023-08-20T10:55:23;6.03;;;1.90;;
80823;SDS011;70538;59.122;37.876;2023-08-20T10:57:55;8.18;;;2.10;;
80823;SDS011;70538;59.122;37.876;2023-08-20T11:00:27;10.30;;;2.47;;
80823;SDS011;70538;59.122;37.876;2023-08-20T11:02:55;6.63;;;2.15;;
80823;SDS011;70538;59.122;37.876;2023-08-20T11:05:25;6.50;;;2.08;;
80823;SDS011;70538;59.122;37.876;2023-08-20T11:07:54;5.90;;;1.60;;
80823;SDS011;70538;59.122;37.876;2023-08-20T11:10:23;5.43;;;1.80;;
80823;SDS011;70538;59.122;37.876;2023-08-20T11:12:51;6.17;;;1.80;;
80823;SDS011;70538;59.122;37.876;2023-08-20T11:15:19;6.93;;;2.30;;
80823;SDS011;70538;59.122;37.876;2023-08-20T11:17:48;5.90;;;2.38;;
80823;SDS011;70538;59.122;37.876;2023-08-20T11:20:18;6.38;;;2.38;;
80823;SDS011;70538;59.122;37.876;2023-08-20T11:22:47;7.43;;;2.30;;
80823;SDS011;70538;59.122;37.876;2023-08-20T11:25:15;8.27;;;2.37;;
80823;SDS011;70538;59.122;37.876;2023-08-20T11:27:43;14.05;;;7.25;;
80823;SDS011;70538;59.122;37.876;2023-08-20T11:30:11;6.65;;;2.15;;
80823;SDS011;70538;59.122;37.876;2023-08-20T11:32:40;7.13;;;2.42;;
80823;SDS011;70538;59.122;37.876;2023-08-20T11:35:10;9.25;;;2.20;;
80823;SDS011;70538;59.122;37.876;2023-08-20T11:37:39;8.57;;;2.20;;
80823;SDS011;70538;59.122;37.876;2023-08-20T11:40:08;5.85;;;2.20;;
80823;SDS011;70538;59.122;37.876;2023-08-20T11:42:36;6.35;;;1.77;;
80823;SDS011;70538;59.122;37.876;2023-08-20T11:45:04;5.85;;;2.70;;
80823;SDS011;70538;59.122;37.876;2023-08-20T11:47:40;7.10;;;2.05;;
80823;SDS011;70538;59.122;37.876;2023-08-20T11:50:09;5.60;;;1.50;;
80823;SDS011;70538;59.122;37.876;2023-08-20T11:52:37;6.28;;;2.00;;
80823;SDS011;70538;59.122;37.876;2023-08-20T11:55:09;5.68;;;2.00;;
80823;SDS011;70538;59.122;37.876;2023-08-20T11:57:37;5.10;;;1.90;;
80823;SDS011;70538;59.122;37.876;2023-08-20T12:00:08;7.90;;;2.67;;
80823;SDS011;70538;59.122;37.876;2023-08-20T12:02:43;5.57;;;2.00;;
80823;SDS011;70538;59.122;37.876;2023-08-20T12:05:11;6.60;;;2.00;;
80823;SDS011;70538;59.122;37.876;2023-08-20T12:07:39;5.97;;;2.15;;
80823;SDS011;70538;59.122;37.876;2023-08-20T12:10:20;5.85;;;2.13;;
80823;SDS011;70538;59.122;37.876;2023-08-20T12:12:49;5.93;;;2.00;;
80823;SDS011;70538;59.122;37.876;2023-08-20T12:15:18;9.53;;;2.43;;
80823;SDS011;70538;59.122;37.876;2023-08-20T12:17:56;5.13;;;2.30;;
80823;SDS011;70538;59.122;37.876;2023-08-20T12:20:26;6.45;;;2.40;;
80823;SDS011;70538;59.122;37.876;2023-08-20T12:22:57;6.32;;;1.88;;
80823;SDS011;70538;59.122;37.876;2023-08-20T12:25:26;5.72;;;2.20;;
80823;SDS011;70538;59.122;37.876;2023-08-20T12:27:56;4.90;;;2.10;;
80823;SDS011;70538;59.122;37.876;2023-08-20T12:30:24;6.22;;;2.20;;
80823;SDS011;70538;59.122;37.876;2023-08-20T12:32:52;6.35;;;2.30;;
80823;SDS011;70538;59.122;37.876;2023-08-20T12:35:20;6.70;;;2.10;;
80823;SDS011;70538;59.122;37.876;2023-08-20T12:37:48;7.82;;;2.15;;
80823;SDS011;70538;59.122;37.876;2023-08-20T12:40:15;6.77;;;2.50;;
80823;SDS011;70538;59.122;37.876;2023-08-20T12:42:43;5.32;;;2.00;;
80823;SDS011;70538;59.122;37.876;2023-08-20T12:45:11;7.75;;;2.58;;
80823;SDS011;70538;59.122;37.876;2023-08-20T12:47:40;6.25;;;3.08;;
80823;SDS011;70538;59.122;37.876;2023-08-20T12:50:09;6.93;;;2.72;;
80823;SDS011;70538;59.122;37.876;2023-08-20T12:52:38;7.00;;;2.60;;
80823;SDS011;70538;59.122;37.876;2023-08-20T12:55:06;9.50;;;3.50;;
80823;SDS011;70538;59.122;37.876;2023-08-20T12:57:34;10.10;;;2.70;;
80823;SDS011;70538;59.122;37.876;2023-08-20T13:00:05;5.03;;;2.00;;
80823;SDS011;70538;59.122;37.876;2023-08-20T13:02:38;6.63;;;1.98;;
80823;SDS011;70538;59.122;37.876;2023-08-20T13:05:06;6.83;;;2.10;;
80823;SDS011;70538;59.122;37.876;2023-08-20T13:07:36;5.43;;;1.92;;
80823;SDS011;70538;59.122;37.876;2023-08-20T13:10:04;6.20;;;2.00;;
80823;SDS011;70538;59.122;37.876;2023-08-20T13:12:32;5.78;;;2.00;;
80823;SDS011;70538;59.122;37.876;2023-08-20T13:15:01;5.55;;;1.80;;
80823;SDS011;70538;59.122;37.876;2023-08-20T13:17:31;6.03;;;2.30;;
80823;SDS011;70538;59.122;37.876;2023-08-20T13:19:59;6.47;;;2.17;;
80823;SDS011;70538;59.122;37.876;2023-08-20T13:22:29;5.93;;;2.05;;
80823;SDS011;70538;59.122;37.876;2023-08-20T13:24:57;6.97;;;1.65;;
80823;SDS011;70538;59.122;37.876;2023-08-20T13:27:26;5.57;;;2.17;;
80823;SDS011;70538;59.122;37.876;2023-08-20T13:29:53;7.23;;;2.30;;
80823;SDS011;70538;59.122;37.876;2023-08-20T13:32:22;6.25;;;2.25;;
80823;SDS011;70538;59.122;37.876;2023-08-20T13:34:50;7.72;;;2.45;;
80823;SDS011;70538;59.122;37.876;2023-08-20T13:37:17;8.02;;;2.53;;
80823;SDS011;70538;59.122;37.876;2023-08-20T13:39:45;6.53;;;2.85;;
80823;SDS011;70538;59.122;37.876;2023-08-20T13:42:13;6.90;;;2.60;;
80823;SDS011;70538;59.122;37.876;2023-08-20T13:44:41;8.88;;;2.95;;
80823;SDS011;70538;59.122;37.876;2023-08-20T13:47:09;6.28;;;2.60;;
80823;SDS011;70538;59.122;37.876;2023-08-20T13:49:36;7.00;;;2.53;;
80823;SDS011;70538;59.122;37.876;2023-08-20T13:52:04;5.18;;;1.90;;
80823;SDS011;70538;59.122;37.876;2023-08-20T13:54:32;5.90;;;2.47;;
80823;SDS011;70538;59.122;37.876;2023-08-20T13:57:00;6.15;;;2.70;;
80823;SDS011;70538;59.122;37.876;2023-08-20T13:59:28;6.20;;;2.20;;
80823;SDS011;70538;59.122;37.876;2023-08-20T14:01:57;5.68;;;2.22;;
80823;SDS011;70538;59.122;37.876;2023-08-20T14:04:25;5.68;;;1.77;;
80823;SDS011;70538;59.122;37.876;2023-08-20T14:06:53;9.53;;;2.30;;
80823;SDS011;70538;59.122;37.876;2023-08-20T14:09:21;6.75;;;1.98;;
80823;SDS011;70538;59.122;37.876;2023-08-20T14:11:48;6.43;;;1.98;;
80823;SDS011;70538;59.122;37.876;2023-08-20T14:14:17;7.05;;;2.10;;
80823;SDS011;70538;59.122;37.876;2023-08-20T14:16:46;7.90;;;2.60;;
80823;SDS011;70538;59.122;37.876;2023-08-20T14:19:13;11.07;;;2.70;;
80823;SDS011;70538;59.122;37.876;2023-08-20T14:21:41;13.18;;;3.10;;
80823;SDS011;70538;59.122;37.876;2023-08-20T14:24:09;8.15;;;2.80;;
80823;SDS011;70538;59.122;37.876;2023-08-20T14:26:36;6.47;;;2.05;;
80823;SDS011;70538;59.122;37.876;2023-08-20T14:29:04;6.32;;;1.75;;
80823;SDS011;70538;59.122;37.876;2023-08-20T14:31:32;7.70;;;2.07;;
80823;SDS011;70538;59.122;37.876;2023-08-20T14:33:59;6.85;;;1.90;;
80823;SDS011;70538;59.122;37.876;2023-08-20T14:36:27;5.93;;;1.67;;
80823;SDS011;70538;59.122;37.876;2023-08-20T14:38:55;6.57;;;1.60;;
80823;SDS011;70538;59.122;37.876;2023-08-20T14:41:23;7.93;;;2.13;;
80823;SDS011;70538;59.122;37.876;2023-08-20T14:43:52;5.10;;;1.77;;
80823;SDS011;70538;59.122;37.876;2023-08-20T14:46:24;6.82;;;2.08;;
80823;SDS011;70538;59.122;37.876;2023-08-20T14:48:54;14.52;;;5.25;;
80823;SDS011;70538;59.122;37.876;2023-08-20T14:51:22;7.38;;;2.58;;
80823;SDS011;70538;59.122;37.876;2023-08-20T14:53:50;12.00;;;3.80;;
80823;SDS011;70538;59.122;37.876;2023-08-20T14:56:17;9.63;;;1.90;;
80823;SDS011;70538;59.122;37.876;2023-08-20T14:58:45;6.50;;;2.28;;
80823;SDS011;70538;59.122;37.876;2023-08-20T15:01:13;11.88;;;2.83;;